createdAt,value
2016-09-05T00:00:49.860Z,0
2016-09-05T00:01:49.839Z,0
2016-09-05T00:02:49.830Z,0
2016-09-05T00:03:50.532Z,0
2016-09-05T00:04:50.530Z,0
2016-09-05T00:05:49.803Z,0
2016-09-05T00:06:49.786Z,0
2016-09-05T00:07:50.482Z,0
2016-09-05T00:08:50.486Z,0
2016-09-05T00:09:50.475Z,0
2016-09-05T00:10:49.759Z,0
2016-09-05T00:11:49.945Z,0
2016-09-05T00:12:49.731Z,0
2016-09-05T00:13:49.721Z,0
2016-09-05T00:14:50.422Z,0
2016-09-05T00:15:49.707Z,0
2016-09-05T00:16:49.701Z,0
2016-09-05T00:17:50.386Z,0
2016-09-05T00:18:49.677Z,0
2016-09-05T00:19:49.661Z,0
2016-09-05T00:20:49.651Z,0
2016-09-05T00:21:49.644Z,0
2016-09-05T00:22:51.059Z,0
2016-09-05T00:23:49.625Z,0
2016-09-05T00:24:49.622Z,0
2016-09-05T00:25:49.612Z,0
2016-09-05T00:26:49.610Z,0
2016-09-05T00:27:49.587Z,0
2016-09-05T00:28:49.572Z,0
2016-09-05T00:29:49.560Z,0
2016-09-05T00:30:49.549Z,0
2016-09-05T00:31:49.549Z,0
2016-09-05T00:32:50.242Z,0
2016-09-05T00:33:49.532Z,0
2016-09-05T00:34:50.928Z,0
2016-09-05T00:35:49.502Z,0
2016-09-05T00:36:49.514Z,0
2016-09-05T00:37:49.493Z,0
2016-09-05T00:38:50.188Z,0
2016-09-05T00:39:49.470Z,0
2016-09-05T00:40:49.450Z,0
2016-09-05T00:41:49.443Z,0
2016-09-05T00:42:50.197Z,0
2016-09-05T00:43:50.135Z,0
2016-09-05T00:44:50.121Z,0
2016-09-05T00:45:49.401Z,0
2016-09-05T00:46:49.396Z,0
2016-09-05T00:47:50.092Z,0
2016-09-05T00:48:49.377Z,0
2016-09-05T00:49:50.785Z,0
2016-09-05T00:50:50.059Z,0
2016-09-05T00:51:50.053Z,0
2016-09-05T00:52:50.056Z,0
2016-09-05T00:53:50.044Z,0
2016-09-05T00:54:49.316Z,0
2016-09-05T00:55:50.016Z,0
2016-09-05T00:56:49.304Z,0
2016-09-05T00:57:49.283Z,0
2016-09-05T00:58:49.985Z,0
2016-09-05T00:59:49.275Z,0
2016-09-05T01:00:49.963Z,0
2016-09-05T01:01:50.659Z,0
2016-09-05T01:02:49.234Z,0
2016-09-05T01:03:49.226Z,0
2016-09-05T01:04:49.208Z,0
2016-09-05T01:05:49.197Z,0
2016-09-05T01:06:49.196Z,0
2016-09-05T01:07:49.180Z,0
2016-09-05T01:08:49.183Z,0
2016-09-05T01:09:49.165Z,0
2016-09-05T01:10:49.856Z,0
2016-09-05T01:11:49.848Z,0
2016-09-05T01:12:49.127Z,0
2016-09-05T01:13:49.114Z,0
2016-09-05T01:14:49.118Z,0
2016-09-05T01:15:49.807Z,0
2016-09-05T01:16:49.101Z,0
2016-09-05T01:17:49.086Z,0
2016-09-05T01:18:49.063Z,0
2016-09-05T01:19:49.058Z,0
2016-09-05T01:20:49.048Z,0
2016-09-05T01:21:49.036Z,0
2016-09-05T01:22:49.029Z,0
2016-09-05T01:23:49.722Z,0
2016-09-05T01:24:49.015Z,0
2016-09-05T01:25:49.004Z,0
2016-09-05T01:26:48.995Z,0
2016-09-05T01:27:49.685Z,0
2016-09-05T01:28:48.964Z,0
2016-09-05T01:29:48.963Z,0
2016-09-05T01:30:48.950Z,0
2016-09-05T01:31:49.642Z,0
2016-09-05T01:32:48.929Z,0
2016-09-05T01:33:49.620Z,0
2016-09-05T01:34:49.630Z,0
2016-09-05T01:35:48.898Z,0
2016-09-05T01:36:48.885Z,0
2016-09-05T01:37:48.883Z,0
2016-09-05T01:38:48.865Z,0
2016-09-05T01:39:48.868Z,0
2016-09-05T01:40:48.849Z,0
2016-09-05T01:41:49.546Z,0
2016-09-05T01:42:48.826Z,0
2016-09-05T01:43:48.810Z,0
2016-09-05T01:44:48.811Z,0
2016-09-05T01:45:48.803Z,0
2016-09-05T01:46:48.808Z,0
2016-09-05T01:47:48.793Z,0
2016-09-05T01:48:49.476Z,0
2016-09-05T01:49:48.756Z,0
2016-09-05T01:50:48.748Z,0
2016-09-05T01:51:48.731Z,0
2016-09-05T01:52:48.727Z,0
2016-09-05T01:53:48.715Z,0
2016-09-05T01:54:49.429Z,0
2016-09-05T01:55:49.412Z,0
2016-09-05T01:56:48.683Z,0
2016-09-05T01:57:48.682Z,0
2016-09-05T01:58:49.378Z,0
2016-09-05T01:59:49.379Z,0
2016-09-05T02:00:48.643Z,0
2016-09-05T02:01:48.641Z,0
2016-09-05T02:02:48.630Z,0
2016-09-05T02:03:48.617Z,0
2016-09-05T02:04:48.616Z,0
2016-09-05T02:05:48.597Z,0
2016-09-05T02:06:49.296Z,0
2016-09-05T02:07:48.587Z,0
2016-09-05T02:08:49.281Z,0
2016-09-05T02:09:49.263Z,0
2016-09-05T02:10:48.554Z,0
2016-09-05T02:11:49.452Z,0
2016-09-05T02:12:48.536Z,0
2016-09-05T02:13:49.228Z,0
2016-09-05T02:14:48.506Z,0
2016-09-05T02:15:48.499Z,0
2016-09-05T02:16:49.193Z,0
2016-09-05T02:17:48.483Z,0
2016-09-05T02:18:48.462Z,0
2016-09-05T02:19:48.450Z,0
2016-09-05T02:20:48.462Z,0
2016-09-05T02:21:48.438Z,0
2016-09-05T02:22:49.135Z,0
2016-09-05T02:23:49.149Z,0
2016-09-05T02:24:48.402Z,0
2016-09-05T02:25:49.111Z,0
2016-09-05T02:26:49.093Z,0
2016-09-05T02:27:48.389Z,0
2016-09-05T02:28:48.415Z,0
2016-09-05T02:29:48.352Z,0
2016-09-05T02:30:48.353Z,0
2016-09-05T02:31:48.340Z,0
2016-09-05T02:32:48.329Z,0
2016-09-05T02:33:48.323Z,0
2016-09-05T02:34:48.307Z,0
2016-09-05T02:35:49.011Z,0
2016-09-05T02:36:48.293Z,0
2016-09-05T02:37:48.992Z,0
2016-09-05T02:38:48.276Z,0
2016-09-05T02:39:48.256Z,0
2016-09-05T02:40:48.965Z,0
2016-09-05T02:41:48.262Z,0
2016-09-05T02:42:48.941Z,0
2016-09-05T02:43:48.230Z,0
2016-09-05T02:44:48.213Z,0
2016-09-05T02:45:48.201Z,0
2016-09-05T02:46:48.195Z,0
2016-09-05T02:47:48.194Z,0
2016-09-05T02:48:48.173Z,0
2016-09-05T02:49:48.871Z,0
2016-09-05T02:50:48.870Z,0
2016-09-05T02:51:48.859Z,0
2016-09-05T02:52:48.138Z,0
2016-09-05T02:53:48.123Z,0
2016-09-05T02:54:48.821Z,0
2016-09-05T02:55:48.115Z,0
2016-09-05T02:56:48.107Z,0
2016-09-05T02:57:49.512Z,0
2016-09-05T02:58:48.081Z,0
2016-09-05T02:59:48.059Z,0
2016-09-05T03:00:48.055Z,0
2016-09-05T03:01:48.046Z,0
2016-09-05T03:02:48.027Z,0
2016-09-05T03:03:48.035Z,0
2016-09-05T03:04:48.016Z,0
2016-09-05T03:05:48.711Z,0
2016-09-05T03:06:48.003Z,0
2016-09-05T03:07:48.030Z,0
2016-09-05T03:08:48.715Z,0
2016-09-05T03:09:48.706Z,0
2016-09-05T03:10:47.959Z,0
2016-09-05T03:11:47.953Z,0
2016-09-05T03:12:49.354Z,0
2016-09-05T03:13:47.933Z,0
2016-09-05T03:14:48.627Z,0
2016-09-05T03:15:47.907Z,0
2016-09-05T03:16:48.609Z,0
2016-09-05T03:17:47.904Z,0
2016-09-05T03:18:47.871Z,0
2016-09-05T03:19:47.870Z,0
2016-09-05T03:20:48.569Z,0
2016-09-05T03:21:47.856Z,0
2016-09-05T03:22:47.844Z,0
2016-09-05T03:23:48.537Z,0
2016-09-05T03:24:47.834Z,0
2016-09-05T03:25:47.803Z,0
2016-09-05T03:26:47.801Z,0
2016-09-05T03:27:47.804Z,0
2016-09-05T03:28:47.778Z,0
2016-09-05T03:29:48.490Z,0
2016-09-05T03:30:47.764Z,0
2016-09-05T03:31:47.746Z,0
2016-09-05T03:32:47.734Z,0
2016-09-05T03:33:47.726Z,0
2016-09-05T03:34:48.429Z,0
2016-09-05T03:35:47.722Z,0
2016-09-05T03:36:49.120Z,0
2016-09-05T03:37:47.688Z,0
2016-09-05T03:38:47.687Z,0
2016-09-05T03:39:47.673Z,0
2016-09-05T03:40:48.368Z,0
2016-09-05T03:41:47.660Z,0
2016-09-05T03:42:47.638Z,0
2016-09-05T03:43:48.346Z,0
2016-09-05T03:44:47.673Z,0
2016-09-05T03:45:47.610Z,0
2016-09-05T03:46:47.604Z,0
2016-09-05T03:47:47.594Z,0
2016-09-05T03:48:47.577Z,0
2016-09-05T03:49:47.583Z,0
2016-09-05T03:50:47.575Z,0
2016-09-05T03:51:47.555Z,0
2016-09-05T03:52:48.259Z,0
2016-09-05T03:53:47.534Z,0
2016-09-05T03:54:47.525Z,0
2016-09-05T03:55:47.523Z,0
2016-09-05T03:56:47.498Z,0
2016-09-05T03:57:48.219Z,0
2016-09-05T03:58:47.486Z,0
2016-09-05T03:59:47.466Z,0
2016-09-05T04:00:47.467Z,0
2016-09-05T04:01:48.163Z,0
2016-09-05T04:02:47.461Z,0
2016-09-05T04:03:48.146Z,0
2016-09-05T04:04:48.138Z,0
2016-09-05T04:05:48.135Z,0
2016-09-05T04:06:47.411Z,0
2016-09-05T04:07:48.098Z,0
2016-09-05T04:08:47.402Z,0
2016-09-05T04:09:47.383Z,0
2016-09-05T04:10:47.367Z,0
2016-09-05T04:11:47.569Z,0
2016-09-05T04:12:47.356Z,0
2016-09-05T04:13:48.043Z,0
2016-09-05T04:14:47.329Z,0
2016-09-05T04:15:47.323Z,0
2016-09-05T04:16:48.055Z,0
2016-09-05T04:17:48.737Z,0
2016-09-05T04:18:48.011Z,0
2016-09-05T04:19:48.000Z,0
2016-09-05T04:20:47.979Z,0
2016-09-05T04:21:47.259Z,0
2016-09-05T04:22:47.254Z,0
2016-09-05T04:23:47.954Z,0
2016-09-05T04:24:47.950Z,0
2016-09-05T04:25:47.226Z,0
2016-09-05T04:26:47.922Z,0
2016-09-05T04:27:47.209Z,0
2016-09-05T04:28:47.900Z,0
2016-09-05T04:29:47.183Z,0
2016-09-05T04:30:47.896Z,0
2016-09-05T04:31:47.172Z,0
2016-09-05T04:32:47.860Z,0
2016-09-05T04:33:49.271Z,0
2016-09-05T04:34:47.854Z,0
2016-09-05T04:35:47.828Z,0
2016-09-05T04:36:47.121Z,0
2016-09-05T04:37:48.523Z,0
2016-09-05T04:38:47.807Z,0
2016-09-05T04:39:47.796Z,0
2016-09-05T04:40:47.069Z,0
2016-09-05T04:41:47.779Z,0
2016-09-05T04:42:47.058Z,0
2016-09-05T04:43:48.469Z,0
2016-09-05T04:44:47.088Z,0
2016-09-05T04:45:47.737Z,0
2016-09-05T04:46:47.018Z,0
2016-09-05T04:47:47.018Z,0
2016-09-05T04:48:47.704Z,0
2016-09-05T04:49:46.989Z,0
2016-09-05T04:50:47.689Z,0
2016-09-05T04:51:47.670Z,0
2016-09-05T04:52:47.663Z,0
2016-09-05T04:53:47.648Z,0
2016-09-05T04:54:46.933Z,0
2016-09-05T04:55:46.926Z,0
2016-09-05T04:56:46.930Z,0
2016-09-05T04:57:47.607Z,0
2016-09-05T04:58:46.909Z,0
2016-09-05T04:59:46.895Z,0
2016-09-05T05:00:46.876Z,0
2016-09-05T05:01:47.577Z,0
2016-09-05T05:02:46.861Z,0
2016-09-05T05:03:47.566Z,0
2016-09-05T05:04:46.838Z,0
2016-09-05T05:05:47.568Z,0
2016-09-05T05:06:46.836Z,0
2016-09-05T05:07:46.811Z,0
2016-09-05T05:08:46.802Z,0
2016-09-05T05:09:47.500Z,0
2016-09-05T05:10:47.487Z,5
2016-09-05T05:11:46.768Z,5
2016-09-05T05:12:46.772Z,5
2016-09-05T05:13:46.767Z,5
2016-09-05T05:14:47.481Z,5
2016-09-05T05:15:47.449Z,5
2016-09-05T05:16:48.148Z,0
2016-09-05T05:17:46.719Z,5
2016-09-05T05:18:48.155Z,5
2016-09-05T05:19:48.122Z,5
2016-09-05T05:20:47.395Z,5
2016-09-05T05:21:46.676Z,5
2016-09-05T05:22:46.658Z,5
2016-09-05T05:23:47.359Z,5
2016-09-05T05:24:47.363Z,0
2016-09-05T05:25:47.336Z,0
2016-09-05T05:26:48.041Z,0
2016-09-05T05:27:46.623Z,5
2016-09-05T05:28:46.597Z,5
2016-09-05T05:29:46.612Z,5
2016-09-05T05:30:46.589Z,5
2016-09-05T05:31:47.279Z,5
2016-09-05T05:32:46.574Z,5
2016-09-05T05:33:47.256Z,5
2016-09-05T05:34:47.267Z,5
2016-09-05T05:35:46.535Z,10
2016-09-05T05:36:46.531Z,15
2016-09-05T05:37:47.237Z,15
2016-09-05T05:38:47.211Z,20
2016-09-05T05:39:47.914Z,15
2016-09-05T05:40:46.484Z,10
2016-09-05T05:41:48.605Z,10
2016-09-05T05:42:46.461Z,10
2016-09-05T05:43:46.459Z,10
2016-09-05T05:44:46.450Z,10
2016-09-05T05:45:46.441Z,10
2016-09-05T05:46:47.129Z,15
2016-09-05T05:47:47.124Z,15
2016-09-05T05:48:46.409Z,15
2016-09-05T05:49:47.111Z,15
2016-09-05T05:50:46.393Z,15
2016-09-05T05:51:47.098Z,10
2016-09-05T05:52:46.368Z,15
2016-09-05T05:53:47.063Z,20
2016-09-05T05:54:47.056Z,15
2016-09-05T05:55:46.340Z,25
2016-09-05T05:56:47.031Z,20
2016-09-05T05:57:46.326Z,20
2016-09-05T05:58:47.017Z,15
2016-09-05T05:59:46.296Z,15
2016-09-05T06:00:47.020Z,15
2016-09-05T06:01:46.983Z,20
2016-09-05T06:02:46.267Z,30
2016-09-05T06:03:46.967Z,40
2016-09-05T06:04:46.250Z,50
2016-09-05T06:05:46.244Z,45
2016-09-05T06:06:46.942Z,45
2016-09-05T06:07:47.644Z,40
2016-09-05T06:08:47.630Z,40
2016-09-05T06:09:46.208Z,35
2016-09-05T06:10:46.189Z,35
2016-09-05T06:11:46.789Z,35
2016-09-05T06:12:46.176Z,45
2016-09-05T06:13:46.166Z,50
2016-09-05T06:14:46.171Z,50
2016-09-05T06:15:46.864Z,60
2016-09-05T06:16:46.135Z,55
2016-09-05T06:17:46.837Z,60
2016-09-05T06:18:46.821Z,70
2016-09-05T06:19:46.812Z,75
2016-09-05T06:20:46.804Z,85
2016-09-05T06:21:46.300Z,95
2016-09-05T06:22:46.787Z,105
2016-09-05T06:23:46.776Z,110
2016-09-05T06:24:46.774Z,95
2016-09-05T06:25:46.765Z,80
2016-09-05T06:26:46.777Z,70
2016-09-05T06:27:46.057Z,75
2016-09-05T06:28:46.038Z,75
2016-09-05T06:29:46.022Z,75
2016-09-05T06:30:46.715Z,80
2016-09-05T06:31:46.707Z,85
2016-09-05T06:32:46.693Z,75
2016-09-05T06:33:47.420Z,75
2016-09-05T06:34:47.397Z,75
2016-09-05T06:35:46.666Z,75
2016-09-05T06:36:45.947Z,105
2016-09-05T06:37:46.647Z,105
2016-09-05T06:38:45.929Z,110
2016-09-05T06:39:45.917Z,120
2016-09-05T06:40:45.914Z,130
2016-09-05T06:41:47.327Z,120
2016-09-05T06:42:45.900Z,100
2016-09-05T06:43:45.874Z,90
2016-09-05T06:44:46.586Z,90
2016-09-05T06:45:47.280Z,115
2016-09-05T06:46:47.262Z,100
2016-09-05T06:47:45.859Z,105
2016-09-05T06:48:46.538Z,95
2016-09-05T06:49:46.525Z,80
2016-09-05T06:50:45.830Z,90
2016-09-05T06:51:45.807Z,110
2016-09-05T06:52:45.797Z,100
2016-09-05T06:53:45.790Z,130
2016-09-05T06:54:45.775Z,130
2016-09-05T06:55:45.770Z,115
2016-09-05T06:56:46.475Z,105
2016-09-05T06:57:45.753Z,110
2016-09-05T06:58:46.465Z,115
2016-09-05T06:59:45.758Z,135
2016-09-05T07:00:46.476Z,165
2016-09-05T07:01:45.714Z,135
2016-09-05T07:02:46.429Z,150
2016-09-05T07:03:46.404Z,150
2016-09-05T07:04:45.694Z,160
2016-09-05T07:05:47.114Z,135
2016-09-05T07:06:45.671Z,125
2016-09-05T07:07:47.083Z,115
2016-09-05T07:08:45.657Z,145
2016-09-05T07:09:45.650Z,150
2016-09-05T07:10:45.635Z,155
2016-09-05T07:11:46.334Z,165
2016-09-05T07:12:45.614Z,155
2016-09-05T07:13:45.609Z,115
2016-09-05T07:14:46.325Z,95
2016-09-05T07:15:45.594Z,95
2016-09-05T07:16:46.297Z,100
2016-09-05T07:17:46.285Z,105
2016-09-05T07:18:45.562Z,105
2016-09-05T07:19:46.266Z,115
2016-09-05T07:20:45.561Z,115
2016-09-05T07:21:46.953Z,145
2016-09-05T07:22:46.245Z,150
2016-09-05T07:23:45.516Z,180
2016-09-05T07:24:45.523Z,150
2016-09-05T07:25:46.213Z,150
2016-09-05T07:26:46.910Z,160
2016-09-05T07:27:45.492Z,140
2016-09-05T07:28:46.186Z,130
2016-09-05T07:29:46.194Z,135
2016-09-05T07:30:45.475Z,110
2016-09-05T07:31:45.464Z,110
2016-09-05T07:32:45.445Z,150
2016-09-05T07:33:45.432Z,160
2016-09-05T07:34:45.435Z,115
2016-09-05T07:35:46.130Z,130
2016-09-05T07:36:45.425Z,115
2016-09-05T07:37:46.115Z,115
2016-09-05T07:38:45.398Z,140
2016-09-05T07:39:46.109Z,155
2016-09-05T07:40:45.383Z,125
2016-09-05T07:41:45.375Z,100
2016-09-05T07:42:46.068Z,100
2016-09-05T07:43:46.770Z,100
2016-09-05T07:44:45.351Z,100
2016-09-05T07:45:45.335Z,110
2016-09-05T07:46:46.037Z,115
2016-09-05T07:47:46.034Z,135
2016-09-05T07:48:45.311Z,145
2016-09-05T07:49:45.301Z,240
2016-09-05T07:50:45.297Z,235
2016-09-05T07:51:46.003Z,185
2016-09-05T07:52:45.981Z,135
2016-09-05T07:53:45.972Z,115
2016-09-05T07:54:45.265Z,160
2016-09-05T07:55:45.964Z,185
2016-09-05T07:56:45.242Z,160
2016-09-05T07:57:45.966Z,150
2016-09-05T07:58:45.954Z,140
2016-09-05T07:59:45.230Z,205
2016-09-05T08:00:45.218Z,235
2016-09-05T08:01:46.620Z,170
2016-09-05T08:02:45.191Z,150
2016-09-05T08:03:46.602Z,160
2016-09-05T08:04:45.183Z,170
2016-09-05T08:05:45.166Z,205
2016-09-05T08:06:45.167Z,170
2016-09-05T08:07:45.150Z,165
2016-09-05T08:08:45.140Z,175
2016-09-05T08:09:45.143Z,165
2016-09-05T08:10:45.139Z,165
2016-09-05T08:11:45.130Z,360
2016-09-05T08:12:45.825Z,220
2016-09-05T08:13:45.104Z,350
2016-09-05T08:14:45.105Z,180
2016-09-05T08:15:45.090Z,245
2016-09-05T08:16:45.081Z,220
2016-09-05T08:17:46.527Z,170
2016-09-05T08:18:45.778Z,200
2016-09-05T08:19:45.761Z,525
2016-09-05T08:20:45.760Z,395
2016-09-05T08:21:45.054Z,675
2016-09-05T08:22:45.033Z,195
2016-09-05T08:23:45.032Z,400
2016-09-05T08:24:45.729Z,320
2016-09-05T08:25:45.013Z,170
2016-09-05T08:26:45.020Z,160
2016-09-05T08:27:45.003Z,140
2016-09-05T08:28:44.998Z,175
2016-09-05T08:29:45.696Z,230
2016-09-05T08:30:44.977Z,190
2016-09-05T08:31:44.967Z,210
2016-09-05T08:32:46.381Z,175
2016-09-05T08:33:45.668Z,180
2016-09-05T08:34:45.662Z,165
2016-09-05T08:35:44.937Z,210
2016-09-05T08:36:44.929Z,220
2016-09-05T08:37:44.919Z,205
2016-09-05T08:38:44.918Z,245
2016-09-05T08:39:45.619Z,200
2016-09-05T08:40:46.314Z,170
2016-09-05T08:41:44.888Z,180
2016-09-05T08:42:44.892Z,170
2016-09-05T08:43:44.893Z,245
2016-09-05T08:44:44.874Z,315
2016-09-05T08:45:45.642Z,245
2016-09-05T08:46:44.855Z,185
2016-09-05T08:47:44.856Z,145
2016-09-05T08:48:44.841Z,190
2016-09-05T08:49:45.539Z,195
2016-09-05T08:50:45.548Z,215
2016-09-05T08:51:44.825Z,205
2016-09-05T08:52:45.528Z,175
2016-09-05T08:53:45.516Z,160
2016-09-05T08:54:44.806Z,250
2016-09-05T08:55:44.790Z,255
2016-09-05T08:56:44.800Z,260
2016-09-05T08:57:44.771Z,290
2016-09-05T08:58:44.760Z,275
2016-09-05T08:59:45.465Z,285
2016-09-05T09:00:44.754Z,240
2016-09-05T09:01:45.450Z,330
2016-09-05T09:02:45.514Z,330
2016-09-05T09:03:45.441Z,290
2016-09-05T09:04:44.733Z,230
2016-09-05T09:05:44.717Z,270
2016-09-05T09:06:45.420Z,285
2016-09-05T09:07:45.414Z,265
2016-09-05T09:08:45.401Z,300
2016-09-05T09:09:44.697Z,275
2016-09-05T09:10:44.692Z,260
2016-09-05T09:11:44.687Z,250
2016-09-05T09:12:44.688Z,265
2016-09-05T09:13:44.663Z,230
2016-09-05T09:14:44.663Z,280
2016-09-05T09:15:45.357Z,310
2016-09-05T09:16:44.639Z,220
2016-09-05T09:17:44.628Z,205
2016-09-05T09:18:45.344Z,190
2016-09-05T09:19:46.035Z,195
2016-09-05T09:20:44.609Z,175
2016-09-05T09:21:45.322Z,230
2016-09-05T09:22:45.315Z,220
2016-09-05T09:23:45.313Z,165
2016-09-05T09:24:44.608Z,170
2016-09-05T09:25:44.581Z,190
2016-09-05T09:26:45.283Z,175
2016-09-05T09:27:45.271Z,205
2016-09-05T09:28:44.576Z,290
2016-09-05T09:29:44.566Z,320
2016-09-05T09:30:45.263Z,390
2016-09-05T09:31:45.248Z,400
2016-09-05T09:32:45.261Z,410
2016-09-05T09:33:45.235Z,390
2016-09-05T09:34:45.232Z,370
2016-09-05T09:35:45.228Z,335
2016-09-05T09:36:44.505Z,305
2016-09-05T09:37:45.215Z,310
2016-09-05T09:38:45.906Z,295
2016-09-05T09:39:45.194Z,335
2016-09-05T09:40:45.194Z,305
2016-09-05T09:41:45.191Z,265
2016-09-05T09:42:45.178Z,260
2016-09-05T09:43:44.464Z,315
2016-09-05T09:44:44.459Z,310
2016-09-05T09:45:45.214Z,260
2016-09-05T09:46:44.444Z,305
2016-09-05T09:47:45.854Z,385
2016-09-05T09:48:44.433Z,330
2016-09-05T09:49:45.145Z,350
2016-09-05T09:50:45.127Z,335
2016-09-05T09:51:45.128Z,275
2016-09-05T09:52:45.119Z,280
2016-09-05T09:53:45.104Z,310
2016-09-05T09:54:44.397Z,295
2016-09-05T09:55:44.391Z,350
2016-09-05T09:56:45.090Z,375
2016-09-05T09:57:45.799Z,375
2016-09-05T09:58:44.376Z,350
2016-09-05T09:59:44.357Z,365
2016-09-05T10:00:44.377Z,395
2016-09-05T10:01:44.351Z,440
2016-09-05T10:02:44.347Z,430
2016-09-05T10:03:44.352Z,415
2016-09-05T10:04:44.342Z,390
2016-09-05T10:05:44.324Z,365
2016-09-05T10:06:45.757Z,380
2016-09-05T10:07:45.028Z,460
2016-09-05T10:08:45.020Z,455
2016-09-05T10:09:44.310Z,445
2016-09-05T10:10:45.717Z,395
2016-09-05T10:11:45.012Z,280
2016-09-05T10:12:44.487Z,245
2016-09-05T10:13:44.985Z,195
2016-09-05T10:14:44.986Z,120
2016-09-05T10:15:45.684Z,85
2016-09-05T10:16:45.678Z,65
2016-09-05T10:17:44.267Z,60
2016-09-05T10:18:44.259Z,80
2016-09-05T10:19:44.958Z,100
2016-09-05T10:20:44.959Z,120
2016-09-05T10:21:44.236Z,145
2016-09-05T10:22:44.948Z,175
2016-09-05T10:23:44.945Z,225
2016-09-05T10:24:44.212Z,320
2016-09-05T10:25:44.920Z,415
2016-09-05T10:26:44.924Z,440
2016-09-05T10:27:44.193Z,350
2016-09-05T10:28:44.191Z,255
2016-09-05T10:29:44.902Z,220
2016-09-05T10:30:44.180Z,235
2016-09-05T10:31:44.880Z,575
2016-09-05T10:32:44.877Z,420
2016-09-05T10:33:45.582Z,585
2016-09-05T10:34:44.864Z,460
2016-09-05T10:35:44.143Z,460
2016-09-05T10:36:44.872Z,445
2016-09-05T10:37:44.851Z,410
2016-09-05T10:38:46.258Z,270
2016-09-05T10:39:44.852Z,355
2016-09-05T10:40:44.825Z,235
2016-09-05T10:41:44.110Z,210
2016-09-05T10:42:44.108Z,180
2016-09-05T10:43:44.807Z,170
2016-09-05T10:44:44.802Z,150
2016-09-05T10:45:44.844Z,145
2016-09-05T10:46:44.786Z,175
2016-09-05T10:47:45.509Z,320
2016-09-05T10:48:44.078Z,495
2016-09-05T10:49:44.784Z,580
2016-09-05T10:50:44.073Z,515
2016-09-05T10:51:44.061Z,500
2016-09-05T10:52:44.048Z,480
2016-09-05T10:53:44.046Z,470
2016-09-05T10:54:44.034Z,470
2016-09-05T10:55:44.036Z,445
2016-09-05T10:56:44.752Z,385
2016-09-05T10:57:44.721Z,330
2016-09-05T10:58:44.024Z,315
2016-09-05T10:59:44.023Z,300
2016-09-05T11:00:44.014Z,315
2016-09-05T11:01:45.421Z,380
2016-09-05T11:02:44.005Z,390
2016-09-05T11:03:44.707Z,345
2016-09-05T11:04:43.980Z,355
2016-09-05T11:05:43.972Z,395
2016-09-05T11:06:45.383Z,450
2016-09-05T11:07:44.693Z,465
2016-09-05T11:08:43.961Z,525
2016-09-05T11:09:44.686Z,475
2016-09-05T11:10:45.376Z,555
2016-09-05T11:11:43.945Z,995
2016-09-05T11:12:46.060Z,465
2016-09-05T11:13:44.647Z,345
2016-09-05T11:14:44.631Z,505
2016-09-05T11:15:45.343Z,330
2016-09-05T11:16:43.921Z,385
2016-09-05T11:17:44.618Z,455
2016-09-05T11:18:43.916Z,590
2016-09-05T11:19:45.316Z,895
2016-09-05T11:20:44.609Z,1610
2016-09-05T11:21:44.605Z,515
2016-09-05T11:22:43.887Z,1295
2016-09-05T11:23:43.879Z,340
2016-09-05T11:24:44.583Z,355
2016-09-05T11:25:43.871Z,320
2016-09-05T11:26:43.865Z,340
2016-09-05T11:27:44.565Z,405
2016-09-05T11:28:44.569Z,490
2016-09-05T11:29:45.285Z,1920
2016-09-05T11:30:43.847Z,740
2016-09-05T11:31:43.906Z,490
2016-09-05T11:32:43.845Z,690
2016-09-05T11:33:43.833Z,335
2016-09-05T11:34:44.537Z,340
2016-09-05T11:35:43.828Z,435
2016-09-05T11:36:43.816Z,510
2016-09-05T11:37:43.819Z,435
2016-09-05T11:38:43.811Z,545
2016-09-05T11:39:44.519Z,385
2016-09-05T11:40:44.532Z,380
2016-09-05T11:41:43.828Z,430
2016-09-05T11:42:44.508Z,435
2016-09-05T11:43:44.497Z,825
2016-09-05T11:44:44.485Z,505
2016-09-05T11:45:44.542Z,530
2016-09-05T11:46:43.774Z,670
2016-09-05T11:47:43.772Z,515
2016-09-05T11:48:44.493Z,390
2016-09-05T11:49:45.180Z,420
2016-09-05T11:50:44.461Z,345
2016-09-05T11:51:45.175Z,465
2016-09-05T11:52:43.746Z,165
2016-09-05T11:53:44.452Z,140
2016-09-05T11:54:44.461Z,145
2016-09-05T11:55:43.735Z,175
2016-09-05T11:56:43.730Z,205
2016-09-05T11:57:44.428Z,215
2016-09-05T11:58:43.719Z,205
2016-09-05T11:59:43.710Z,185
2016-09-05T12:00:43.724Z,185
2016-09-05T12:01:43.704Z,200
2016-09-05T12:02:44.419Z,215
2016-09-05T12:03:43.688Z,230
2016-09-05T12:04:45.104Z,240
2016-09-05T12:05:43.685Z,260
2016-09-05T12:06:43.673Z,295
2016-09-05T12:07:43.685Z,325
2016-09-05T12:08:43.674Z,370
2016-09-05T12:09:43.665Z,265
2016-09-05T12:10:44.367Z,235
2016-09-05T12:11:43.653Z,250
2016-09-05T12:12:45.983Z,260
2016-09-05T12:13:44.386Z,270
2016-09-05T12:14:43.648Z,275
2016-09-05T12:15:44.347Z,275
2016-09-05T12:16:44.334Z,290
2016-09-05T12:17:44.327Z,295
2016-09-05T12:18:43.611Z,285
2016-09-05T12:19:44.318Z,265
2016-09-05T12:20:43.607Z,235
2016-09-05T12:21:44.313Z,220
2016-09-05T12:22:43.600Z,220
2016-09-05T12:23:43.587Z,240
2016-09-05T12:24:44.287Z,260
2016-09-05T12:25:43.586Z,295
2016-09-05T12:26:43.589Z,345
2016-09-05T12:27:43.571Z,405
2016-09-05T12:28:43.564Z,460
2016-09-05T12:29:44.265Z,480
2016-09-05T12:30:43.548Z,495
2016-09-05T12:31:44.257Z,450
2016-09-05T12:32:45.674Z,395
2016-09-05T12:33:44.180Z,360
2016-09-05T12:34:44.169Z,320
2016-09-05T12:35:43.848Z,285
2016-09-05T12:36:43.831Z,275
2016-09-05T12:37:43.848Z,270
2016-09-05T12:38:43.833Z,285
2016-09-05T12:39:43.813Z,315
2016-09-05T12:40:43.819Z,370
2016-09-05T12:41:43.806Z,410
2016-09-05T12:42:43.806Z,450
2016-09-05T12:43:43.481Z,545
2016-09-05T12:44:43.789Z,720
2016-09-05T12:45:44.415Z,1000
2016-09-05T12:46:43.786Z,570
2016-09-05T12:47:43.781Z,1925
2016-09-05T12:48:44.410Z,1530
2016-09-05T12:49:43.754Z,515
2016-09-05T12:50:43.446Z,495
2016-09-05T12:51:43.751Z,380
2016-09-05T12:52:43.441Z,305
2016-09-05T12:53:43.755Z,250
2016-09-05T12:54:43.742Z,195
2016-09-05T12:55:43.419Z,150
2016-09-05T12:56:44.045Z,130
2016-09-05T12:57:43.409Z,130
2016-09-05T12:58:43.403Z,140
2016-09-05T12:59:43.405Z,145
2016-09-05T13:00:43.397Z,160
2016-09-05T13:01:44.025Z,175
2016-09-05T13:02:43.704Z,200
2016-09-05T13:03:43.380Z,245
2016-09-05T13:04:44.009Z,300
2016-09-05T13:05:43.386Z,355
2016-09-05T13:06:43.383Z,415
2016-09-05T13:07:43.675Z,515
2016-09-05T13:08:43.363Z,800
2016-09-05T13:09:43.355Z,1295
2016-09-05T13:10:43.345Z,1950
2016-09-05T13:11:43.347Z,2135
2016-09-05T13:12:43.335Z,1015
2016-09-05T13:13:43.335Z,830
2016-09-05T13:14:43.328Z,995
2016-09-05T13:15:43.643Z,1000
2016-09-05T13:16:43.945Z,1045
2016-09-05T13:17:43.635Z,1745
2016-09-05T13:18:44.254Z,750
2016-09-05T13:19:43.624Z,685
2016-09-05T13:20:43.623Z,1335
2016-09-05T13:21:43.310Z,710
2016-09-05T13:22:43.304Z,570
2016-09-05T13:23:43.606Z,510
2016-09-05T13:24:43.603Z,515
2016-09-05T13:25:43.604Z,805
2016-09-05T13:26:44.233Z,750
2016-09-05T13:27:43.619Z,1385
2016-09-05T13:28:43.606Z,1785
2016-09-05T13:29:43.910Z,650
2016-09-05T13:30:43.274Z,615
2016-09-05T13:31:43.580Z,615
2016-09-05T13:32:43.591Z,500
2016-09-05T13:33:43.270Z,495
2016-09-05T13:34:43.889Z,1665
2016-09-05T13:35:43.569Z,1665
2016-09-05T13:36:43.255Z,460
2016-09-05T13:37:43.872Z,1425
2016-09-05T13:38:44.204Z,420
2016-09-05T13:39:43.569Z,400
2016-09-05T13:40:43.885Z,1090
2016-09-05T13:41:43.244Z,405
2016-09-05T13:42:43.562Z,255
2016-09-05T13:43:43.542Z,205
2016-09-05T13:44:43.241Z,185
2016-09-05T13:45:43.552Z,205
2016-09-05T13:46:43.537Z,320
2016-09-05T13:47:43.548Z,325
2016-09-05T13:48:43.538Z,560
2016-09-05T13:49:43.213Z,375
2016-09-05T13:50:43.215Z,310
2016-09-05T13:51:43.525Z,290
2016-09-05T13:52:43.518Z,245
2016-09-05T13:53:43.527Z,245
2016-09-05T13:54:43.201Z,220
2016-09-05T13:55:43.191Z,205
2016-09-05T13:56:43.541Z,220
2016-09-05T13:57:43.501Z,240
2016-09-05T13:58:43.821Z,230
2016-09-05T13:59:43.183Z,275
2016-09-05T14:00:43.183Z,285
2016-09-05T14:01:43.483Z,290
2016-09-05T14:02:43.504Z,295
2016-09-05T14:03:43.481Z,390
2016-09-05T14:04:43.165Z,1400
2016-09-05T14:05:43.478Z,1415
2016-09-05T14:06:43.466Z,880
2016-09-05T14:07:43.462Z,1010
2016-09-05T14:08:44.088Z,1465
2016-09-05T14:09:43.136Z,695
2016-09-05T14:10:43.139Z,505